Time,TemperatureF,DewpointF,PressureIn,WindDirection,WindDirectionDegrees,WindSpeedMPH,WindSpeedGustMPH,Humidity,HourlyPrecipIn,Conditions,Clouds,dailyrainin,SoftwareType,DateUTC
2013-09-16 00:01:00,52.3,50.0,30.09,SSE,157,0.0,0.0,92,0.00,,,0.00,weatherlink.com 1.10,2013-09-16 04:01:00,
2013-09-16 00:16:00,52.4,50.0,30.09,SSE,157,0.0,0.0,92,0.00,,,0.00,weatherlink.com 1.10,2013-09-16 04:16:00,
2013-09-16 00:31:00,51.8,50.0,30.09,SSE,157,0.0,0.0,92,0.00,,,0.00,weatherlink.com 1.10,2013-09-16 04:31:00,
2013-09-16 00:46:00,51.8,50.0,30.09,SSE,157,0.0,0.0,93,0.00,,,0.00,weatherlink.com 1.10,2013-09-16 04:46:00,
2013-09-16 01:01:00,51.4,50.0,30.08,SSE,157,0.0,0.0,93,0.00,,,0.00,weatherlink.com 1.10,2013-09-16 05:01:00,
2013-09-16 01:16:00,51.5,50.0,30.08,SSE,158,0.0,0.0,93,0.00,,,0.00,weatherlink.com 1.10,2013-09-16 05:16:00,
2013-09-16 01:31:00,52.4,51.0,30.09,SSE,158,0.0,0.0,94,0.00,,,0.00,weatherlink.com 1.10,2013-09-16 05:31:00,
2013-09-16 01:46:00,52.5,51.0,30.08,SSE,158,0.0,0.0,94,0.00,,,0.00,weatherlink.com 1.10,2013-09-16 05:46:00,
2013-09-16 02:01:00,51.9,50.0,30.08,SSE,158,0.0,0.0,93,0.00,,,0.00,weatherlink.com 1.10,2013-09-16 06:01:00,
2013-09-16 02:16:00,52.6,51.0,30.07,SSE,158,0.0,0.0,94,0.00,,,0.00,weatherlink.com 1.10,2013-09-16 06:16:00,
2013-09-16 02:32:00,53.0,52.0,30.07,SSE,158,0.0,0.0,95,0.00,,,0.00,weatherlink.com 1.10,2013-09-16 06:32:00,
2013-09-16 02:47:00,54.1,53.0,30.07,SSE,157,0.0,0.0,95,0.00,,,0.00,weatherlink.com 1.10,2013-09-16 06:47:00,
2013-09-16 03:02:00,55.4,54.0,30.06,SSE,150,0.0,0.0,95,0.00,,,0.00,weatherlink.com 1.10,2013-09-16 07:02:00,
2013-09-16 03:32:00,56.1,55.0,30.05,SSE,150,0.0,0.0,95,0.00,,,0.00,weatherlink.com 1.10,2013-09-16 07:32:00,
2013-09-16 03:47:00,55.9,55.0,30.05,SSE,150,0.0,0.0,95,0.00,,,0.00,weatherlink.com 1.10,2013-09-16 07:47:00,
2013-09-16 04:02:00,56.3,55.0,30.05,SSE,150,0.0,0.0,95,0.00,,,0.00,weatherlink.com 1.10,2013-09-16 08:02:00,
2013-09-16 04:17:00,56.2,55.0,30.04,SSE,150,0.0,0.0,94,0.00,,,0.00,weatherlink.com 1.10,2013-09-16 08:17:00,
2013-09-16 04:32:00,56.0,54.0,30.03,SSE,149,0.0,0.0,94,0.00,,,0.00,weatherlink.com 1.10,2013-09-16 08:32:00,
2013-09-16 04:47:00,55.9,54.0,30.04,SSE,150,0.0,0.0,94,0.00,,,0.00,weatherlink.com 1.10,2013-09-16 08:47:00,
2013-09-16 05:02:00,56.3,55.0,30.03,SSE,150,0.0,0.0,94,0.00,,,0.00,weatherlink.com 1.10,2013-09-16 09:02:00,
2013-09-16 05:17:00,56.5,55.0,30.03,SSE,150,0.0,0.0,94,0.00,,,0.00,weatherlink.com 1.10,2013-09-16 09:17:00,
2013-09-16 05:32:00,56.5,55.0,30.03,SSE,150,0.0,0.0,94,0.00,,,0.00,weatherlink.com 1.10,2013-09-16 09:32:00,
2013-09-16 05:47:00,56.3,55.0,30.02,SSE,150,0.0,0.0,94,0.00,,,0.00,weatherlink.com 1.10,2013-09-16 09:47:00,
2013-09-16 06:02:00,56.4,55.0,30.02,SSE,150,0.0,0.0,94,0.00,,,0.00,weatherlink.com 1.10,2013-09-16 10:02:00,
2013-09-16 06:17:00,57.0,56.0,30.03,SSE,150,0.0,0.0,95,0.00,,,0.00,weatherlink.com 1.10,2013-09-16 10:17:00,
2013-09-16 06:32:00,57.1,56.0,30.04,SSE,149,0.0,1.0,95,0.00,,,0.00,weatherlink.com 1.10,2013-09-16 10:32:00,
2013-09-16 06:47:00,56.8,55.0,30.04,SSE,149,0.0,0.0,94,0.00,,,0.00,weatherlink.com 1.10,2013-09-16 10:47:00,
2013-09-16 07:02:00,56.1,54.0,30.04,SSE,149,0.0,0.0,93,0.00,,,0.00,weatherlink.com 1.10,2013-09-16 11:02:00,
2013-09-16 07:17:00,55.9,54.0,30.05,SSE,149,0.0,0.0,93,0.00,,,0.00,weatherlink.com 1.10,2013-09-16 11:17:00,
2013-09-16 07:32:00,58.4,57.0,30.04,SSE,149,0.0,0.0,95,0.00,,,0.00,weatherlink.com 1.10,2013-09-16 11:32:00,
2013-09-16 07:47:00,60.1,58.0,30.04,South,186,0.0,1.0,94,0.00,,,0.00,weatherlink.com 1.10,2013-09-16 11:47:00,
2013-09-16 08:02:00,61.4,60.0,30.05,South,185,0.0,0.0,94,0.00,,,0.00,weatherlink.com 1.10,2013-09-16 12:02:00,
2013-09-16 08:17:00,64.3,63.0,30.05,South,186,0.0,0.0,94,0.00,,,0.00,weatherlink.com 1.10,2013-09-16 12:17:00,
2013-09-16 08:32:00,66.3,63.0,30.05,WSW,254,1.0,4.0,90,0.00,,,0.00,weatherlink.com 1.10,2013-09-16 12:32:00,
2013-09-16 08:47:00,67.1,64.0,30.05,WNW,296,2.0,4.0,88,0.00,,,0.00,weatherlink.com 1.10,2013-09-16 12:47:00,
2013-09-16 09:02:00,67.7,64.0,30.06,WNW,297,5.0,7.0,87,0.00,,,0.00,weatherlink.com 1.10,2013-09-16 13:02:00,
2013-09-16 09:17:00,68.2,63.0,30.05,WNW,303,2.0,6.0,84,0.00,,,0.00,weatherlink.com 1.10,2013-09-16 13:17:00,
2013-09-16 09:32:00,67.7,63.0,30.06,WNW,291,3.0,8.0,84,0.00,,,0.00,weatherlink.com 1.10,2013-09-16 13:32:00,
2013-09-16 09:47:00,67.0,62.0,30.06,NW,316,4.0,6.0,84,0.00,,,0.00,weatherlink.com 1.10,2013-09-16 13:47:00,
2013-09-16 10:02:00,67.3,62.0,30.07,NNW,334,3.0,8.0,84,0.00,,,0.00,weatherlink.com 1.10,2013-09-16 14:02:00,
2013-09-16 10:17:00,66.7,61.0,30.07,NNW,335,4.0,10.0,82,0.00,,,0.00,weatherlink.com 1.10,2013-09-16 14:17:00,
2013-09-16 10:32:00,65.8,61.0,30.06,NNW,346,4.0,8.0,83,0.00,,,0.00,weatherlink.com 1.10,2013-09-16 14:32:00,
2013-09-16 10:47:00,64.7,59.0,30.06,North,8,3.0,8.0,82,0.00,,,0.00,weatherlink.com 1.10,2013-09-16 14:47:00,
2013-09-16 11:02:00,63.9,59.0,30.07,NE,34,2.0,8.0,85,0.00,,,0.00,weatherlink.com 1.10,2013-09-16 15:02:00,
2013-09-16 11:18:00,62.4,59.0,30.07,NNW,347,5.0,7.0,88,0.01,,,0.01,weatherlink.com 1.10,2013-09-16 15:18:00,
2013-09-16 11:33:00,61.6,58.0,30.07,NNE,21,2.0,8.0,89,0.01,,,0.01,weatherlink.com 1.10,2013-09-16 15:33:00,
2013-09-16 11:48:00,62.5,59.0,30.08,NE,41,2.0,6.0,89,0.01,,,0.01,weatherlink.com 1.10,2013-09-16 15:48:00,
2013-09-16 12:03:00,62.5,59.0,30.08,NNE,13,3.0,6.0,88,0.01,,,0.01,weatherlink.com 1.10,2013-09-16 16:03:00,
2013-09-16 12:18:00,61.9,58.0,30.07,NNW,347,3.0,8.0,88,0.00,,,0.01,weatherlink.com 1.10,2013-09-16 16:18:00,
2013-09-16 12:33:00,62.5,59.0,30.08,NNE,15,1.0,5.0,88,0.00,,,0.01,weatherlink.com 1.10,2013-09-16 16:33:00,
2013-09-16 12:48:00,63.2,59.0,30.08,NNE,31,2.0,8.0,87,0.00,,,0.01,weatherlink.com 1.10,2013-09-16 16:48:00,
2013-09-16 13:03:00,64.3,59.0,30.07,NNE,23,4.0,9.0,83,0.00,,,0.01,weatherlink.com 1.10,2013-09-16 17:03:00,
2013-09-16 13:18:00,65.2,60.0,30.07,North,356,3.0,9.0,82,0.00,,,0.01,weatherlink.com 1.10,2013-09-16 17:18:00,
2013-09-16 13:33:00,65.1,59.0,30.07,NE,46,2.0,10.0,80,0.00,,,0.01,weatherlink.com 1.10,2013-09-16 17:33:00,
2013-09-16 13:48:00,66.7,59.0,30.07,NNE,20,3.0,7.0,76,0.00,,,0.01,weatherlink.com 1.10,2013-09-16 17:48:00,
2013-09-16 14:03:00,66.4,58.0,30.07,NNW,345,4.0,7.0,74,0.00,,,0.01,weatherlink.com 1.10,2013-09-16 18:03:00,
2013-09-16 14:18:00,65.7,58.0,30.07,NW,307,3.0,6.0,77,0.00,,,0.01,weatherlink.com 1.10,2013-09-16 18:18:00,
2013-09-16 14:33:00,66.0,58.0,30.06,NE,42,1.0,7.0,76,0.00,,,0.01,weatherlink.com 1.10,2013-09-16 18:33:00,
2013-09-16 14:48:00,66.3,58.0,30.07,North,352,5.0,9.0,75,0.00,,,0.01,weatherlink.com 1.10,2013-09-16 18:48:00,
2013-09-16 15:03:00,66.7,59.0,30.07,NE,45,3.0,6.0,77,0.00,,,0.01,weatherlink.com 1.10,2013-09-16 19:03:00,
2013-09-16 15:18:00,67.0,59.0,30.07,North,356,4.0,7.0,75,0.00,,,0.01,weatherlink.com 1.10,2013-09-16 19:18:00,
2013-09-16 15:33:00,65.8,58.0,30.07,NE,44,3.0,9.0,76,0.00,,,0.01,weatherlink.com 1.10,2013-09-16 19:33:00,
2013-09-16 15:48:00,67.0,59.0,30.06,NW,324,3.0,9.0,76,0.00,,,0.01,weatherlink.com 1.10,2013-09-16 19:48:00,
2013-09-16 16:03:00,68.1,59.0,30.06,NNE,15,4.0,9.0,72,0.00,,,0.01,weatherlink.com 1.10,2013-09-16 20:03:00,
2013-09-16 16:18:00,69.0,58.0,30.07,NNW,328,3.0,7.0,68,0.00,,,0.01,weatherlink.com 1.10,2013-09-16 20:18:00,
2013-09-16 16:33:00,69.5,57.0,30.06,NNW,337,3.0,9.0,64,0.00,,,0.01,weatherlink.com 1.10,2013-09-16 20:33:00,
2013-09-16 16:48:00,69.9,57.0,30.06,NNW,338,1.0,8.0,63,0.00,,,0.01,weatherlink.com 1.10,2013-09-16 20:48:00,
2013-09-16 17:03:00,68.2,56.0,30.07,NW,322,1.0,6.0,66,0.00,,,0.01,weatherlink.com 1.10,2013-09-16 21:03:00,
2013-09-16 17:18:00,67.6,58.0,30.07,NNW,329,1.0,2.0,71,0.00,,,0.01,weatherlink.com 1.10,2013-09-16 21:18:00,
2013-09-16 17:33:00,67.5,58.0,30.07,WNW,296,1.0,1.0,72,0.00,,,0.01,weatherlink.com 1.10,2013-09-16 21:33:00,
2013-09-16 17:48:00,66.8,59.0,30.08,WNW,295,0.0,1.0,76,0.00,,,0.01,weatherlink.com 1.10,2013-09-16 21:48:00,
2013-09-16 18:03:00,65.7,59.0,30.08,WNW,293,0.0,0.0,79,0.00,,,0.01,weatherlink.com 1.10,2013-09-16 22:03:00,
2013-09-16 18:18:00,65.3,59.0,30.08,WNW,293,0.0,0.0,80,0.00,,,0.01,weatherlink.com 1.10,2013-09-16 22:18:00,
2013-09-16 18:33:00,65.1,60.0,30.08,West,269,0.0,0.0,83,0.00,,,0.01,weatherlink.com 1.10,2013-09-16 22:33:00,
2013-09-16 18:48:00,64.4,61.0,30.08,West,269,0.0,0.0,87,0.00,,,0.01,weatherlink.com 1.10,2013-09-16 22:48:00,
2013-09-16 19:03:00,63.4,60.0,30.09,West,269,0.0,0.0,88,0.00,,,0.01,weatherlink.com 1.10,2013-09-16 23:03:00,
2013-09-16 19:18:00,62.4,59.0,30.09,West,269,0.0,0.0,88,0.00,,,0.01,weatherlink.com 1.10,2013-09-16 23:18:00,
2013-09-16 19:33:00,61.7,59.0,30.10,West,269,0.0,0.0,89,0.00,,,0.01,weatherlink.com 1.10,2013-09-16 23:33:00,
2013-09-16 19:48:00,61.1,58.0,30.10,West,269,0.0,0.0,90,0.00,,,0.01,weatherlink.com 1.10,2013-09-16 23:48:00,
2013-09-16 20:03:00,59.9,57.0,30.11,West,269,0.0,0.0,90,0.00,,,0.01,weatherlink.com 1.10,2013-09-17 00:03:00,
2013-09-16 20:18:00,58.9,56.0,30.11,WSW,254,0.0,1.0,90,0.00,,,0.01,weatherlink.com 1.10,2013-09-17 00:18:00,
2013-09-16 20:33:00,57.5,55.0,30.12,NNW,338,0.0,2.0,91,0.00,,,0.01,weatherlink.com 1.10,2013-09-17 00:33:00,
2013-09-16 20:48:00,56.5,54.0,30.13,NNW,338,0.0,1.0,91,0.00,,,0.01,weatherlink.com 1.10,2013-09-17 00:48:00,
2013-09-16 21:03:00,56.1,54.0,30.14,NNW,338,0.0,1.0,91,0.00,,,0.01,weatherlink.com 1.10,2013-09-17 01:03:00,
2013-09-16 21:18:00,56.7,54.0,30.14,NNW,338,0.0,3.0,91,0.00,,,0.01,weatherlink.com 1.10,2013-09-17 01:18:00,
2013-09-16 21:33:00,58.2,54.0,30.15,NNE,15,2.0,6.0,87,0.00,,,0.01,weatherlink.com 1.10,2013-09-17 01:33:00,
2013-09-16 21:48:00,59.2,54.0,30.16,NNW,344,4.0,5.0,84,0.00,,,0.01,weatherlink.com 1.10,2013-09-17 01:48:00,
2013-09-16 22:03:00,59.9,54.0,30.16,North,1,4.0,7.0,81,0.00,,,0.01,weatherlink.com 1.10,2013-09-17 02:03:00,
2013-09-16 22:18:00,59.5,54.0,30.17,North,359,1.0,3.0,82,0.00,,,0.01,weatherlink.com 1.10,2013-09-17 02:18:00,
2013-09-16 22:33:00,58.7,54.0,30.17,NNW,336,2.0,3.0,84,0.00,,,0.01,weatherlink.com 1.10,2013-09-17 02:33:00,
2013-09-16 22:48:00,58.2,54.0,30.18,NNW,340,2.0,4.0,85,0.00,,,0.01,weatherlink.com 1.10,2013-09-17 02:48:00,
2013-09-16 23:03:00,58.1,54.0,30.18,NNW,330,1.0,5.0,85,0.00,,,0.01,weatherlink.com 1.10,2013-09-17 03:03:00,
2013-09-16 23:18:00,58.6,54.0,30.19,North,8,2.0,7.0,83,0.00,,,0.01,weatherlink.com 1.10,2013-09-17 03:18:00,
2013-09-16 23:33:00,58.7,53.0,30.19,North,11,2.0,6.0,82,0.00,,,0.01,weatherlink.com 1.10,2013-09-17 03:33:00,
2013-09-16 23:48:00,58.5,53.0,30.20,NNW,329,3.0,6.0,82,0.00,,,0.01,weatherlink.com 1.10,2013-09-17 03:48:00,